Time;durP1;ratioP1;P1;durP2;ratioP2;P2;SDS_P1;SDS_P2;PMS_P1;PMS_P2;Temp;Humidity;BMP_temperature;BMP_pressure;BME280_temperature;BME280_humidity;BME280_pressure;Samples;Min_cycle;Max_cycle;Signal;HPM_P1;HPM_P2
2022/10/27 00:00:14;;;;;;;3.28;2.15;;;;;;;16.28;98.06;101456.31;5018335;28;20420;-66
2022/10/27 00:02:42;;;;;;;6.47;2.72;;;;;;;16.26;98.02;101455.91;5028919;28;20036;-66
2022/10/27 00:05:07;;;;;;;6.25;2.75;;;;;;;16.31;98.35;101459.44;5029624;28;20030;-67
2022/10/27 00:07:36;;;;;;;5.65;2.92;;;;;;;16.30;98.49;101449.75;5030506;28;20516;-66
2022/10/27 00:10:03;;;;;;;3.67;2.63;;;;;;;16.25;99.11;101448.91;5025613;28;20037;-66
2022/10/27 00:12:30;;;;;;;5.47;2.80;;;;;;;16.13;99.92;101446.47;5030338;28;20394;-66
2022/10/27 00:14:55;;;;;;;7.25;2.67;;;;;;;16.16;100.00;101453.84;5029680;28;20044;-66
2022/10/27 00:17:21;;;;;;;8.43;3.30;;;;;;;16.16;100.00;101459.28;5028681;28;20408;-65
2022/10/27 00:19:46;;;;;;;5.78;2.40;;;;;;;16.14;100.00;101461.59;5021475;28;20041;-66
2022/10/27 00:22:11;;;;;;;5.38;3.08;;;;;;;16.21;100.00;101461.69;5026455;28;20156;-66
2022/10/27 00:24:37;;;;;;;3.70;2.50;;;;;;;16.22;100.00;101455.09;5027842;28;20025;-66
2022/10/27 00:27:02;;;;;;;3.80;2.13;;;;;;;16.19;100.00;101460.50;5020667;28;20481;-66
2022/10/27 00:29:28;;;;;;;4.25;2.53;;;;;;;16.16;100.00;101453.84;5028624;28;20037;-66
2022/10/27 00:31:53;;;;;;;7.43;3.25;;;;;;;16.12;100.00;101455.75;5030411;28;20030;-66
2022/10/27 00:34:19;;;;;;;4.47;2.78;;;;;;;16.13;100.00;101460.06;5028699;28;20045;-66
2022/10/27 00:36:44;;;;;;;3.42;2.45;;;;;;;16.16;100.00;101459.28;5030136;28;20109;-66
2022/10/27 00:39:09;;;;;;;6.03;2.55;;;;;;;16.16;100.00;101463.97;5029602;28;20061;-66
2022/10/27 00:41:38;;;;;;;6.22;3.22;;;;;;;16.21;100.00;101475.28;5021223;28;20026;-66
2022/10/27 00:44:28;;;;;;;8.38;2.80;;;;;;;16.24;100.00;101465.59;5025652;28;20044;-66
2022/10/27 00:46:54;;;;;;;4.45;2.50;;;;;;;16.17;100.00;101470.94;5025121;28;20064;-66
2022/10/27 00:49:25;;;;;;;7.38;2.90;;;;;;;16.20;100.00;101476.41;5029371;28;20477;-66
2022/10/27 00:51:56;;;;;;;;;;;;;;;16.15;100.00;101474.06;5030706;28;20041;-66
2022/10/27 00:54:23;;;;;;;6.20;3.17;;;;;;;16.06;100.00;101480.94;5028014;28;19913;-66
2022/10/27 00:56:51;;;;;;;5.20;2.65;;;;;;;16.13;100.00;101479.06;5029876;28;20486;-66
2022/10/27 00:59:18;;;;;;;9.43;2.97;;;;;;;16.13;100.00;101470.91;5028165;28;20490;-66
2022/10/27 01:01:45;;;;;;;5.72;3.08;;;;;;;16.14;100.00;101491.50;5029748;28;20394;-66
2022/10/27 01:04:12;;;;;;;6.68;3.20;;;;;;;16.05;100.00;101479.34;5025323;28;20151;-67
2022/10/27 01:06:37;;;;;;;5.85;2.80;;;;;;;16.09;100.00;101486.41;5025513;28;20029;-66
2022/10/27 01:09:04;;;;;;;6.05;3.25;;;;;;;16.11;100.00;101478.66;5028962;28;20167;-66
2022/10/27 01:11:30;;;;;;;5.82;3.10;;;;;;;16.18;100.00;101486.13;5030239;28;20100;-66
2022/10/27 01:13:55;;;;;;;5.18;2.88;;;;;;;16.09;100.00;101482.91;5023492;28;20486;-66
2022/10/27 01:16:59;;;;;;;8.43;3.33;;;;;;;16.11;100.00;101488.75;5022656;28;20052;-66
2022/10/27 01:20:05;;;;;;;5.20;3.08;;;;;;;16.05;100.00;101496.44;5005871;28;20513;-67
2022/10/27 01:22:39;;;;;;;9.40;3.03;;;;;;;15.96;100.00;101495.97;5019434;28;20033;-67
2022/10/27 01:25:23;;;;;;;6.18;3.15;;;;;;;16.02;100.00;101497.19;5032549;28;20485;-66
2022/10/27 01:28:23;;;;;;;6.18;2.70;;;;;;;16.05;100.00;101493.72;5033381;28;20037;-65
2022/10/27 01:30:55;;;;;;;7.97;2.90;;;;;;;16.06;100.00;101491.81;5022116;28;20033;-67
2022/10/27 01:33:23;;;;;;;;;;;;;;;16.03;100.00;101498.75;5028416;28;20041;-66
2022/10/27 01:36:03;;;;;;;4.07;2.45;;;;;;;15.97;100.00;101489.34;5020474;28;19987;-66
2022/10/27 01:38:34;;;;;;;6.60;3.25;;;;;;;15.80;100.00;101489.94;5032157;28;20056;-65
2022/10/27 01:41:09;;;;;;;5.90;3.22;;;;;;;15.88;100.00;101488.09;5033012;28;20041;-66
2022/10/27 01:43:35;;;;;;;6.03;2.83;;;;;;;15.95;100.00;101486.22;5023105;28;20030;-66
2022/10/27 01:46:05;;;;;;;5.43;2.90;;;;;;;15.93;100.00;101488.53;5021905;28;20489;-66
2022/10/27 01:48:35;;;;;;;5.07;2.53;;;;;;;15.93;100.00;101488.53;5025807;28;20041;-66
2022/10/27 01:51:01;;;;;;;6.93;2.80;;;;;;;15.91;100.00;101495.50;5028330;28;20472;-66
2022/10/27 01:53:29;;;;;;;4.57;3.10;;;;;;;15.94;100.00;101503.69;5032841;28;20097;-66
2022/10/27 01:56:04;;;;;;;4.95;3.78;;;;;;;15.85;100.00;101503.19;5029485;28;20486;-66
2022/10/27 01:59:11;;;;;;;6.28;2.97;;;;;;;15.83;100.00;101502.00;5025750;28;20041;-66
2022/10/27 02:01:43;;;;;;;6.20;3.35;;;;;;;15.89;100.00;101512.16;5005341;28;20052;-66
2022/10/27 02:04:34;;;;;;;5.78;3.45;;;;;;;15.91;100.00;101509.84;5029953;28;20103;-66
2022/10/27 02:07:24;;;;;;;5.18;3.03;;;;;;;15.86;100.00;101521.06;5022077;28;20501;-66
2022/10/27 02:09:58;;;;;;;4.57;2.75;;;;;;;15.88;100.00;101518.75;5022969;28;20401;-66
2022/10/27 02:12:33;;;;;;;4.72;2.83;;;;;;;15.79;100.00;101512.81;5031513;28;20494;-66
2022/10/27 02:15:02;;;;;;;5.95;3.00;;;;;;;15.89;100.00;101508.69;5021009;28;20045;-66
2022/10/27 02:17:36;;;;;;;5.78;3.05;;;;;;;15.92;100.00;101518.78;5018337;28;20034;-66
2022/10/27 02:20:06;;;;;;;4.35;2.70;;;;;;;15.81;100.00;101524.09;5022395;28;20087;-66
2022/10/27 02:22:31;;;;;;;4.38;2.80;;;;;;;15.85;100.00;101529.59;5032581;28;20397;-66
2022/10/27 02:24:57;;;;;;;7.30;3.35;;;;;;;15.85;100.00;101527.63;5020190;28;20025;-66
2022/10/27 02:27:33;;;;;;;4.28;2.72;;;;;;;15.82;100.00;101533.81;5031409;28;20486;-67
2022/10/27 02:30:02;;;;;;;4.95;2.55;;;;;;;15.79;100.00;101531.84;5032173;28;20110;-66
2022/10/27 02:32:28;;;;;;;4.20;2.78;;;;;;;15.84;100.00;101530.72;5014566;28;20036;-66
2022/10/27 02:34:56;;;;;;;4.90;2.70;;;;;;;15.87;100.00;101541.63;5022053;28;20105;-67
2022/10/27 02:37:29;;;;;;;5.88;3.20;;;;;;;15.81;100.00;101542.34;5026107;28;20029;-66
2022/10/27 02:39:54;;;;;;;5.15;2.58;;;;;;;15.73;100.00;101536.03;5029169;28;20033;-66
2022/10/27 02:42:19;;;;;;;3.88;2.25;;;;;;;15.76;100.00;101546.16;5022517;28;20087;-66
2022/10/27 02:44:45;;;;;;;3.85;2.65;;;;;;;15.85;100.00;101537.72;5028666;28;20122;-66
2022/10/27 02:47:10;;;;;;;4.18;2.92;;;;;;;15.75;100.00;101543.81;5031959;28;20030;-67
2022/10/27 02:49:36;;;;;;;4.93;2.90;;;;;;;15.81;100.00;101540.41;5031905;28;20037;-66
2022/10/27 02:52:03;;;;;;;5.43;2.60;;;;;;;15.85;100.00;101543.94;5027224;28;20041;-66
2022/10/27 02:54:30;;;;;;;3.88;2.28;;;;;;;15.86;100.00;101542.78;5022780;28;20045;-66
2022/10/27 02:56:55;;;;;;;3.97;2.38;;;;;;;15.81;100.00;101543.13;5031380;28;20041;-66
2022/10/27 02:59:20;;;;;;;4.75;2.70;;;;;;;15.83;100.00;101553.63;5045686;28;20117;-66
2022/10/27 03:01:46;;;;;;;3.72;2.60;;;;;;;15.79;100.00;101556.28;5017425;28;20057;-66
2022/10/27 03:04:11;;;;;;;3.22;2.22;;;;;;;15.75;100.00;101565.53;5026400;28;20176;-66
2022/10/27 03:06:37;;;;;;;4.70;2.28;;;;;;;15.72;100.00;101567.03;5027758;28;20087;-66
2022/10/27 03:09:02;;;;;;;4.28;2.92;;;;;;;15.69;100.00;101575.13;5022147;28;20072;-66
2022/10/27 03:11:28;;;;;;;4.57;2.80;;;;;;;15.61;100.00;101568.81;5031245;28;20097;-66
2022/10/27 03:13:53;;;;;;;3.97;2.47;;;;;;;15.71;100.00;101573.63;5030078;28;20045;-66
2022/10/27 03:16:18;;;;;;;7.53;2.55;;;;;;;15.76;100.00;101573.31;5012590;28;20120;-66
2022/10/27 03:18:44;;;;;;;4.22;2.10;;;;;;;15.79;100.00;101580.75;5025961;28;20049;-66
2022/10/27 03:21:09;;;;;;;5.20;2.72;;;;;;;15.78;100.00;101575.66;5029981;28;20030;-66
2022/10/27 03:23:34;;;;;;;4.15;2.40;;;;;;;15.80;100.00;101585.00;5031205;28;20033;-66
2022/10/27 03:26:00;;;;;;;3.55;2.30;;;;;;;15.64;100.00;101580.91;5023923;28;20025;-66
2022/10/27 03:28:28;;;;;;;7.13;2.60;;;;;;;15.60;100.00;101591.69;5030343;28;20061;-66
2022/10/27 03:30:54;;;;;;;5.35;2.55;;;;;;;15.67;100.00;101588.31;5030976;28;20044;-66
2022/10/27 03:33:19;;;;;;;5.25;2.83;;;;;;;15.74;100.00;101588.41;5027265;28;20038;-66
2022/10/27 03:35:45;;;;;;;3.88;2.60;;;;;;;15.74;100.00;101591.09;5010747;28;20116;-66
2022/10/27 03:38:11;;;;;;;4.72;2.63;;;;;;;15.74;100.00;101593.81;5021785;28;20034;-66
2022/10/27 03:40:37;;;;;;;3.33;2.30;;;;;;;15.75;100.00;101589.97;5022282;28;20044;-66
2022/10/27 03:43:03;;;;;;;5.78;2.78;;;;;;;15.66;100.00;101598.38;5031141;28;20120;-66
2022/10/27 03:45:28;;;;;;;6.50;3.00;;;;;;;15.65;100.00;101594.09;5028964;28;20072;-66
2022/10/27 03:47:59;;;;;;;3.65;2.42;;;;;;;15.69;100.00;101586.78;5018180;28;20029;-66
2022/10/27 03:50:25;;;;;;;4.40;2.75;;;;;;;15.66;100.00;101597.63;5029732;28;20401;-66
2022/10/27 03:52:50;;;;;;;10.88;2.88;;;;;;;15.56;100.00;101593.59;5014114;28;20021;-66
2022/10/27 03:55:15;;;;;;;4.88;2.38;;;;;;;15.65;100.00;101599.53;5011517;28;20054;-66
2022/10/27 03:57:41;;;;;;;5.13;2.72;;;;;;;15.59;100.00;101592.84;5021415;28;20061;-66
2022/10/27 04:00:07;;;;;;;5.30;2.38;;;;;;;15.60;100.00;101594.41;5022960;28;20045;-66
2022/10/27 04:02:37;;;;;;;4.03;2.85;;;;;;;15.64;100.00;101599.91;5018566;28;20084;-66
2022/10/27 04:05:02;;;;;;;5.00;2.10;;;;;;;15.60;100.00;101605.25;5028542;28;20033;-67
2022/10/27 04:07:28;;;;;;;8.35;2.47;;;;;;;15.53;100.00;101602.44;5030213;28;20021;-66
2022/10/27 04:09:53;;;;;;;3.88;2.25;;;;;;;15.55;100.00;101607.50;5022577;28;20068;-66
2022/10/27 04:12:18;;;;;;;7.72;2.78;;;;;;;15.56;100.00;101609.88;5016673;28;20100;-66
2022/10/27 04:14:44;;;;;;;4.65;2.50;;;;;;;15.57;100.00;101611.44;5026134;28;20040;-66
2022/10/27 04:17:09;;;;;;;4.00;2.53;;;;;;;15.55;100.00;101613.72;5023453;28;20405;-66
2022/10/27 04:19:34;;;;;;;4.45;2.65;;;;;;;15.51;100.00;101602.03;5030546;28;20040;-66
2022/10/27 04:22:00;;;;;;;4.57;2.42;;;;;;;15.55;100.00;101613.72;5043960;23;20038;-68
2022/10/27 04:24:25;;;;;;;7.07;2.60;;;;;;;15.58;100.00;101615.69;4991802;28;20960;-69
2022/10/27 04:26:51;;;;;;;3.90;2.33;;;;;;;15.56;100.00;101620.75;4991038;28;20038;-69
2022/10/27 04:29:16;;;;;;;6.22;2.80;;;;;;;15.42;100.00;101612.38;4991040;28;20034;-69
2022/10/27 04:31:41;;;;;;;7.28;2.47;;;;;;;15.47;100.00;101624.81;4998520;28;20124;-69
2022/10/27 04:34:07;;;;;;;4.60;2.70;;;;;;;15.53;100.00;101624.16;4988131;28;20414;-69
2022/10/27 04:36:32;;;;;;;5.00;2.53;;;;;;;15.55;100.00;101623.78;4974646;28;20476;-68
2022/10/27 04:38:58;;;;;;;4.13;2.38;;;;;;;15.56;100.00;101620.75;4975324;28;20073;-69
2022/10/27 04:41:23;;;;;;;5.18;2.58;;;;;;;15.52;100.00;101630.75;4986853;28;20038;-69
2022/10/27 04:43:50;;;;;;;4.43;2.60;;;;;;;15.47;100.00;101625.63;4981754;28;20032;-69
2022/10/27 04:46:16;;;;;;;2.60;2.03;;;;;;;15.42;100.00;101617.78;4981057;28;20026;-69
2022/10/27 04:48:42;;;;;;;6.38;2.70;;;;;;;15.45;100.00;101617.06;4995218;28;20098;-69
2022/10/27 04:51:07;;;;;;;9.32;2.38;;;;;;;15.43;100.00;101613.16;4988919;28;20041;-69
2022/10/27 04:53:32;;;;;;;6.10;2.83;;;;;;;15.48;100.00;101615.56;4991443;28;20053;-68
2022/10/27 04:55:58;;;;;;;6.00;2.63;;;;;;;15.49;100.00;101608.97;4974288;28;20038;-69
2022/10/27 04:58:23;;;;;;;9.40;2.83;;;;;;;15.48;100.00;101601.97;4976883;28;20110;-68
2022/10/27 05:00:49;;;;;;;3.83;2.47;;;;;;;15.46;100.00;101598.84;4989437;28;20034;-68
2022/10/27 05:03:14;;;;;;;4.35;2.30;;;;;;;15.46;100.00;101602.34;4993248;28;20554;-69
2022/10/27 05:05:40;;;;;;;5.45;2.60;;;;;;;15.39;100.00;101600.25;4975579;28;20237;-69
2022/10/27 05:08:05;;;;;;;5.35;2.72;;;;;;;15.35;100.00;101596.72;4989476;28;20391;-69
2022/10/27 05:10:33;;;;;;;4.32;2.75;;;;;;;15.30;100.00;101605.16;4991247;28;20035;-68
2022/10/27 05:12:58;;;;;;;7.93;2.95;;;;;;;15.20;100.00;101611.19;4975860;28;20023;-69
2022/10/27 05:15:44;;;;;;;4.47;2.47;;;;;;;15.15;100.00;101621.56;4978835;28;20093;-69
2022/10/27 05:18:10;;;;;;;3.83;2.50;;;;;;;15.14;100.00;101619.97;4953257;28;20050;-69
2022/10/27 05:20:35;;;;;;;5.38;2.85;;;;;;;15.18;100.00;101620.84;4940045;29;20457;-70
2022/10/27 05:23:01;;;;;;;4.38;2.40;;;;;;;15.13;100.00;101624.66;4945846;29;20426;-70
2022/10/27 05:25:26;;;;;;;4.30;2.97;;;;;;;15.16;100.00;101628.56;4936528;28;20058;-69
2022/10/27 05:27:52;;;;;;;4.22;2.30;;;;;;;15.10;100.00;101624.56;4950524;28;20047;-69
2022/10/27 05:30:17;;;;;;;5.03;3.10;;;;;;;15.14;100.00;101633.56;4948256;28;20047;-69
2022/10/27 05:32:43;;;;;;;4.15;2.13;;;;;;;15.11;100.00;101635.09;4946854;28;20438;-69
2022/10/27 05:35:08;;;;;;;3.92;2.53;;;;;;;15.17;100.00;101636.34;4941888;29;20047;-69
2022/10/27 05:37:34;;;;;;;5.88;3.15;;;;;;;15.12;100.00;101625.78;4945618;28;20039;-69
2022/10/27 05:40:00;;;;;;;5.65;2.72;;;;;;;15.08;100.00;101621.44;4945017;28;20043;-69
2022/10/27 05:42:25;;;;;;;5.10;2.58;;;;;;;15.11;100.00;101626.94;4952197;28;20154;-68
2022/10/27 05:44:51;;;;;;;3.92;2.65;;;;;;;15.12;100.00;101625.00;4954071;28;20101;-69
2022/10/27 05:47:16;;;;;;;5.57;3.00;;;;;;;14.97;100.00;101637.53;4948553;28;20396;-69
2022/10/27 05:49:41;;;;;;;3.42;2.00;;;;;;;14.91;100.00;101630.03;4949303;29;20560;-69
2022/10/27 05:52:07;;;;;;;7.22;2.72;;;;;;;14.96;99.97;101633.22;4939589;28;21293;-68
2022/10/27 05:54:32;;;;;;;8.65;2.88;;;;;;;15.02;99.70;101634.50;4956311;28;20039;-68
2022/10/27 05:57:00;;;;;;;4.07;2.40;;;;;;;15.09;99.55;101639.28;4989911;28;20151;-69
2022/10/27 05:59:26;;;;;;;7.80;2.83;;;;;;;15.08;99.26;101635.78;4991248;28;20070;-68
2022/10/27 06:01:51;;;;;;;4.85;2.35;;;;;;;15.02;99.54;101634.50;4987642;28;20045;-69
2022/10/27 06:04:16;;;;;;;5.07;2.50;;;;;;;14.94;99.07;101638.22;4992078;28;20034;-68
2022/10/27 06:06:42;;;;;;;4.20;2.45;;;;;;;14.93;99.17;101635.88;4982200;28;20057;-68
2022/10/27 06:09:07;;;;;;;2.80;2.20;;;;;;;14.89;99.22;101635.03;4989640;28;20046;-68
2022/10/27 06:11:33;;;;;;;4.82;2.58;;;;;;;14.86;99.26;101641.97;4992007;28;20042;-69
2022/10/27 06:13:58;;;;;;;4.05;2.58;;;;;;;14.72;98.67;101640.91;4974955;28;20034;-69
2022/10/27 06:16:24;;;;;;;5.07;2.78;;;;;;;14.68;99.04;101646.28;4985730;28;20449;-68
2022/10/27 06:18:50;;;;;;;3.60;2.20;;;;;;;14.69;99.33;101644.34;4992996;28;20117;-69
2022/10/27 06:21:16;;;;;;;3.33;2.03;;;;;;;14.70;99.00;101649.41;4992534;28;20109;-69
2022/10/27 06:23:41;;;;;;;5.22;2.40;;;;;;;14.73;99.12;101635.13;4984557;28;20518;-69
2022/10/27 06:26:09;;;;;;;4.95;2.58;;;;;;;14.75;98.97;101643.69;4987306;28;20040;-69
2022/10/27 06:28:34;;;;;;;4.28;2.72;;;;;;;14.75;98.95;101642.91;4981535;28;20034;-69
2022/10/27 06:31:00;;;;;;;5.47;3.10;;;;;;;14.78;98.62;101645.69;4988867;28;20101;-70
2022/10/27 06:33:25;;;;;;;4.75;3.15;;;;;;;14.81;98.83;101650.38;4991302;28;20038;-70
2022/10/27 06:35:50;;;;;;;7.10;2.70;;;;;;;14.83;98.56;101658.16;4987700;28;20125;-70
2022/10/27 06:38:16;;;;;;;5.88;2.70;;;;;;;14.82;98.71;101656.59;4987072;28;20064;-70
2022/10/27 06:40:43;;;;;;;4.30;2.78;;;;;;;14.84;98.73;101662.47;4988412;28;20030;-69
2022/10/27 06:43:11;;;;;;;5.43;3.22;;;;;;;14.88;98.62;101664.09;4982302;28;20455;-70
2022/10/27 06:45:37;;;;;;;4.45;2.80;;;;;;;15.03;98.01;101671.38;4980669;28;20525;-70
2022/10/27 06:48:05;;;;;;;6.40;2.88;;;;;;;15.10;98.51;101673.41;4978044;28;20034;-70
2022/10/27 06:50:31;;;;;;;4.72;2.53;;;;;;;15.17;98.58;101668.91;4980524;28;20026;-70
2022/10/27 06:52:57;;;;;;;6.88;3.20;;;;;;;15.20;98.81;101670.09;4979498;28;20097;-70
2022/10/27 06:55:23;;;;;;;7.40;2.75;;;;;;;15.16;100.00;101677.41;4982297;28;20133;-70
2022/10/27 06:57:49;;;;;;;8.30;4.13;;;;;;;15.11;100.00;101670.34;4978229;28;20117;-71
2022/10/27 07:00:15;;;;;;;6.13;2.70;;;;;;;15.16;100.00;101671.97;4985348;28;20553;-70
2022/10/27 07:02:41;;;;;;;4.20;2.78;;;;;;;15.09;100.00;101667.22;4985030;28;20034;-71
2022/10/27 07:05:07;;;;;;;6.03;3.10;;;;;;;14.98;100.00;101671.63;4987429;28;20033;-70
2022/10/27 07:07:33;;;;;;;5.15;2.92;;;;;;;15.02;100.00;101672.50;4970670;28;20026;-71
2022/10/27 07:09:59;;;;;;;8.85;2.75;;;;;;;15.18;100.00;101683.25;4990503;28;20042;-70
2022/10/27 07:12:24;;;;;;;6.20;3.13;;;;;;;15.15;100.00;101682.06;4982447;28;20041;-69
2022/10/27 07:14:49;;;;;;;5.22;3.08;;;;;;;15.14;100.00;101691.31;4976867;28;20498;-70
2022/10/27 07:17:15;;;;;;;9.98;3.03;;;;;;;15.16;100.00;101693.69;4990230;28;20105;-69
2022/10/27 07:19:40;;;;;;;6.47;2.97;;;;;;;15.30;100.00;101685.81;4992762;28;20018;-70
2022/10/27 07:22:06;;;;;;;7.50;3.38;;;;;;;15.30;100.00;101699.38;4997885;28;20061;-70
2022/10/27 07:24:31;;;;;;;6.65;3.35;;;;;;;15.08;100.00;101700.09;4994381;28;20494;-70
2022/10/27 07:26:56;;;;;;;5.82;2.92;;;;;;;15.03;100.00;101693.06;5004957;28;20033;-70
2022/10/27 07:29:22;;;;;;;5.88;3.22;;;;;;;15.00;100.00;101693.00;4991797;28;20549;-71
2022/10/27 07:31:48;;;;;;;8.00;3.30;;;;;;;15.05;100.00;101698.91;4989327;28;20806;-70
2022/10/27 07:34:13;;;;;;;6.13;2.85;;;;;;;15.27;100.00;101698.16;4989717;28;20538;-70
2022/10/27 07:36:38;;;;;;;6.80;3.15;;;;;;;15.23;100.00;101708.16;4990005;28;20383;-70
2022/10/27 07:39:04;;;;;;;7.53;3.45;;;;;;;15.21;100.00;101705.03;4984678;28;20121;-70
2022/10/27 07:41:30;;;;;;;4.93;3.10;;;;;;;15.28;100.00;101705.16;4998766;28;20131;-70
2022/10/27 07:43:55;;;;;;;6.97;3.15;;;;;;;15.37;100.00;101713.06;4981005;28;20483;-70
2022/10/27 07:46:20;;;;;;;6.55;3.53;;;;;;;15.52;100.00;101714.16;5005494;28;20046;-70
2022/10/27 07:48:46;;;;;;;10.98;3.90;;;;;;;15.58;100.00;101710.75;4978248;28;20038;-70
2022/10/27 07:51:11;;;;;;;7.32;3.92;;;;;;;15.82;100.00;101710.38;4976065;28;20030;-70
2022/10/27 07:53:37;;;;;;;8.73;3.97;;;;;;;15.68;100.00;101715.56;4997020;28;20034;-70
2022/10/27 07:56:02;;;;;;;5.75;3.58;;;;;;;15.67;100.00;101724.88;4997340;28;20390;-70
2022/10/27 07:58:28;;;;;;;11.65;3.70;;;;;;;15.69;100.00;101719.09;5006017;28;20033;-70
2022/10/27 08:00:53;;;;;;;8.15;3.85;;;;;;;15.71;100.00;101716.78;4981350;28;20444;-70
2022/10/27 08:03:25;;;;;;;9.38;3.45;;;;;;;15.69;100.00;101717.16;4980109;28;20524;-70
2022/10/27 08:05:51;;;;;;;6.45;3.33;;;;;;;15.75;100.00;101715.72;5004323;28;20034;-70
2022/10/27 08:08:17;;;;;;;6.55;3.22;;;;;;;15.76;100.00;101717.28;4985813;28;20105;-70
2022/10/27 08:10:44;;;;;;;9.98;3.28;;;;;;;15.80;100.00;101715.41;4988328;28;20025;-71
2022/10/27 08:13:11;;;;;;;10.55;3.65;;;;;;;15.73;100.00;101717.22;4988557;28;20034;-70
2022/10/27 08:15:38;;;;;;;8.35;3.88;;;;;;;15.87;100.00;101725.59;4981585;28;20033;-70
2022/10/27 08:18:03;;;;;;;4.47;3.35;;;;;;;15.92;100.00;101725.28;4989394;28;20463;-70
2022/10/27 08:20:31;;;;;;;8.10;2.88;;;;;;;15.95;100.00;101730.78;4995878;28;20061;-70
2022/10/27 08:23:01;;;;;;;10.35;4.32;;;;;;;15.91;100.00;101718.31;4991339;28;20096;-70
2022/10/27 08:25:27;;;;;;;6.47;3.55;;;;;;;16.05;100.00;101724.72;4991751;28;20306;-70
2022/10/27 08:27:53;;;;;;;6.05;3.25;;;;;;;16.14;100.00;101727.19;5004029;28;20038;-70
2022/10/27 08:30:19;;;;;;;5.88;3.42;;;;;;;16.12;100.00;101721.34;5004382;28;20034;-70
2022/10/27 08:32:47;;;;;;;5.47;3.00;;;;;;;16.26;100.00;101719.59;4999394;28;20399;-71
2022/10/27 08:35:13;;;;;;;7.78;3.40;;;;;;;16.51;100.00;101730.09;5001524;28;20042;-70
2022/10/27 08:37:38;;;;;;;6.88;3.22;;;;;;;16.52;100.00;101716.09;5001892;28;20038;-71
2022/10/27 08:40:04;;;;;;;8.95;3.20;;;;;;;16.53;100.00;101717.66;4999305;28;20978;-70
2022/10/27 08:42:32;;;;;;;8.75;3.40;;;;;;;16.75;100.00;101718.72;4996876;28;20113;-70
2022/10/27 08:45:06;;;;;;;5.65;3.10;;;;;;;16.76;100.00;101721.06;5018173;28;20402;-70
2022/10/27 08:47:31;;;;;;;4.75;2.78;;;;;;;16.81;100.00;101704.44;4990912;28;20026;-70
2022/10/27 08:50:03;;;;;;;6.65;3.15;;;;;;;16.94;100.00;101724.00;4990512;28;20511;-70
2022/10/27 08:52:40;;;;;;;4.50;2.63;;;;;;;16.94;100.00;101724.81;4990540;28;20485;-70
2022/10/27 08:55:12;;;;;;;5.88;3.17;;;;;;;16.98;100.00;101722.91;4994504;28;20077;-70
2022/10/27 08:57:42;;;;;;;3.42;2.50;;;;;;;17.18;100.00;101723.50;4990356;28;20041;-70
2022/10/27 09:00:11;;;;;;;9.55;3.10;;;;;;;17.23;99.93;101725.88;4990253;28;20096;-70
2022/10/27 09:03:04;;;;;;;4.30;2.80;;;;;;;17.28;99.78;101720.13;4988704;28;20030;-70
2022/10/27 09:05:48;;;;;;;8.82;3.28;;;;;;;17.35;99.37;101725.63;4996620;28;20494;-70
2022/10/27 09:08:34;;;;;;;10.60;3.78;;;;;;;17.38;98.90;101721.38;4994979;28;20117;-71
2022/10/27 09:11:18;;;;;;;6.03;2.78;;;;;;;17.35;99.50;101728.34;4995863;28;20132;-71
2022/10/27 09:14:01;;;;;;;5.15;2.67;;;;;;;17.75;97.46;101728.38;4997719;28;20045;-71
2022/10/27 09:16:41;;;;;;;7.57;3.40;;;;;;;17.78;97.82;101730.34;4996589;28;20182;-70
2022/10/27 09:19:15;;;;;;;4.88;2.17;;;;;;;17.96;96.40;101725.06;4997489;28;20120;-71
2022/10/27 09:21:49;;;;;;;9.10;3.53;;;;;;;17.96;95.67;101723.09;4997551;28;20048;-70
2022/10/27 09:24:20;;;;;;;4.57;2.40;;;;;;;18.12;95.80;101720.06;4996052;28;20537;-71
2022/10/27 09:26:47;;;;;;;5.68;2.50;;;;;;;18.17;94.90;101711.56;4976441;28;20050;-71
2022/10/27 09:29:22;;;;;;;5.35;2.80;;;;;;;18.35;94.61;101714.41;4976383;28;20389;-71
2022/10/27 09:32:24;;;;;;;4.95;2.55;;;;;;;18.24;94.43;101717.03;4989865;28;20070;-71
2022/10/27 09:35:02;;;;;;;3.95;2.45;;;;;;;18.13;94.52;101709.97;4976110;28;20046;-71
2022/10/27 09:37:30;;;;;;;4.70;2.03;;;;;;;18.43;94.30;101718.72;4994270;28;20082;-71
2022/10/27 09:39:57;;;;;;;4.80;2.22;;;;;;;18.62;94.02;101719.22;4992651;28;20026;-71
2022/10/27 09:42:23;;;;;;;3.60;2.28;;;;;;;18.68;93.29;101720.44;4993562;28;20038;-71
2022/10/27 09:44:57;;;;;;;8.00;2.03;;;;;;;18.88;92.40;101715.44;4991517;28;20626;-71
2022/10/27 09:47:27;;;;;;;4.47;2.17;;;;;;;19.00;90.69;101717.03;4994174;28;20039;-70
2022/10/27 09:49:53;;;;;;;3.95;2.05;;;;;;;19.15;90.46;101722.16;4991278;28;20113;-71
2022/10/27 09:52:30;;;;;;;4.78;2.33;;;;;;;19.24;90.13;101730.75;4993330;28;20049;-71
2022/10/27 09:54:56;;;;;;;4.22;2.35;;;;;;;19.12;88.85;101720.22;4992805;28;20047;-71
2022/10/27 09:57:27;;;;;;;4.85;2.08;;;;;;;19.25;89.60;101715.16;4993414;28;20400;-71
2022/10/27 09:59:59;;;;;;;3.78;2.20;;;;;;;19.31;89.48;101719.88;4991214;28;20049;-71
2022/10/27 10:02:34;;;;;;;5.15;1.80;;;;;;;19.27;89.77;101719.06;4993136;28;20045;-70
2022/10/27 10:05:01;;;;;;;2.92;1.95;;;;;;;19.14;89.22;101720.59;4992842;28;20037;-71
2022/10/27 10:07:42;;;;;;;4.90;1.83;;;;;;;19.25;89.39;101718.69;4993106;28;20037;-70
2022/10/27 10:10:13;;;;;;;;;;;;;;;19.33;89.93;101717.56;4993714;28;20057;-71
2022/10/27 10:12:39;;;;;;;3.50;1.80;;;;;;;19.28;90.05;101720.63;4989195;28;19914;-71
2022/10/27 10:15:10;;;;;;;3.20;1.85;;;;;;;19.27;89.94;101721.00;4987746;28;20057;-71
2022/10/27 10:17:39;;;;;;;2.67;2.10;;;;;;;19.21;90.39;101725.28;4992963;28;20046;-70
2022/10/27 10:27:57;;;;;;;4.03;1.60;;;;;;;19.61;88.85;101717.56;5008127;28;20247;-65
2022/10/27 10:30:26;;;;;;;2.42;1.38;;;;;;;19.56;88.68;101723.44;5018201;28;20089;-65
2022/10/27 10:32:56;;;;;;;2.20;1.15;;;;;;;19.60;89.05;101720.69;5017424;28;20085;-68
2022/10/27 10:35:46;;;;;;;2.47;1.25;;;;;;;19.61;89.11;101723.03;5029604;28;20056;-66
2022/10/27 10:38:28;;;;;;;3.13;1.50;;;;;;;19.64;89.90;101722.28;5031067;28;20045;-65
2022/10/27 10:41:13;;;;;;;3.17;1.30;;;;;;;19.68;89.66;101720.34;5026063;28;20056;-65
2022/10/27 10:43:39;;;;;;;2.65;1.13;;;;;;;19.78;89.42;101716.78;5028967;28;20025;-65
2022/10/27 10:46:15;;;;;;;3.10;1.35;;;;;;;19.67;89.28;101718.75;5031529;28;20029;-65
2022/10/27 10:48:46;;;;;;;2.40;1.40;;;;;;;19.55;90.26;101713.66;5020464;28;20164;-65
2022/10/27 10:51:22;;;;;;;4.45;1.58;;;;;;;19.44;90.52;101706.63;5025693;28;20057;-65
2022/10/27 10:53:49;;;;;;;3.17;1.77;;;;;;;19.51;90.71;101704.69;5014474;28;20064;-67
2022/10/27 10:56:28;;;;;;;2.28;1.50;;;;;;;19.43;91.63;101705.88;5027972;28;20029;-65
2022/10/27 10:59:08;;;;;;;3.10;1.40;;;;;;;19.49;91.53;101704.28;5024122;28;20125;-65
2022/10/27 11:01:42;;;;;;;3.47;1.40;;;;;;;19.62;91.27;101700.00;5021450;28;20083;-65
2022/10/27 11:04:14;;;;;;;3.67;1.48;;;;;;;19.63;91.68;101698.03;5027265;28;20099;-65
2022/10/27 11:06:58;;;;;;;2.30;1.33;;;;;;;19.48;91.81;101697.28;5032243;28;20029;-65
2022/10/27 11:09:31;;;;;;;3.78;1.48;;;;;;;19.73;91.03;101692.59;5019370;28;20033;-65
2022/10/27 11:11:58;;;;;;;1.55;1.13;;;;;;;19.88;89.70;101693.34;5018772;28;20536;-65
2022/10/27 11:14:25;;;;;;;3.38;1.13;;;;;;;19.75;90.38;101684.78;5027413;28;20048;-65
2022/10/27 11:16:56;;;;;;;1.45;1.10;;;;;;;19.92;90.37;101685.91;5029426;28;20541;-65
2022/10/27 11:19:23;;;;;;;3.40;1.17;;;;;;;20.12;89.29;101689.81;5019170;28;20029;-65
2022/10/27 11:22:06;;;;;;;4.85;1.20;;;;;;;20.16;89.19;101681.59;5014065;28;20034;-65
2022/10/27 11:24:49;;;;;;;2.15;1.17;;;;;;;19.99;89.57;101680.47;5023860;28;20041;-66
2022/10/27 11:27:29;;;;;;;1.50;1.10;;;;;;;19.91;89.91;101667.19;5019898;28;20065;-67
2022/10/27 11:30:05;;;;;;;1.83;1.17;;;;;;;20.11;89.59;101677.28;5013863;28;20042;-67
2022/10/27 11:32:53;;;;;;;2.45;1.05;;;;;;;19.97;89.61;101673.81;5012171;28;20030;-67
2022/10/27 11:35:44;;;;;;;1.00;0.90;;;;;;;19.96;89.80;101675.75;5024646;28;20029;-67